Time;durP1;ratioP1;P1;durP2;ratioP2;P2;SDS_P1;SDS_P2;PMS_P1;PMS_P2;Temp;Humidity;BMP_temperature;BMP_pressure;BME280_temperature;BME280_humidity;BME280_pressure;Samples;Min_cycle;Max_cycle;Signal;HPM_P1;HPM_P2
2022/03/03 00:00:08;;;;;;;23.45;11.77;;;4.30;99.90;;;;;;5011439;28;20083;-75
2022/03/03 00:02:35;;;;;;;21.13;12.30;;;4.50;99.90;;;;;;5012693;28;20129;-77
2022/03/03 00:05:04;;;;;;;21.15;10.63;;;4.60;99.20;;;;;;5011615;28;20096;-76
2022/03/03 00:07:32;;;;;;;17.90;11.70;;;4.70;99.40;;;;;;5012674;28;20464;-74
2022/03/03 00:09:59;;;;;;;16.27;11.23;;;4.70;98.90;;;;;;5012186;28;20064;-76
2022/03/03 00:12:26;;;;;;;17.52;11.60;;;4.90;98.80;;;;;;5012175;28;20057;-76
2022/03/03 00:14:54;;;;;;;16.25;10.85;;;4.90;98.50;;;;;;5012308;28;20054;-75
2022/03/03 00:17:21;;;;;;;18.73;10.50;;;5.00;98.20;;;;;;5011148;28;20057;-75
2022/03/03 00:19:48;;;;;;;15.50;10.25;;;4.90;97.80;;;;;;5012009;28;20038;-75
2022/03/03 00:22:16;;;;;;;15.43;10.55;;;4.80;98.20;;;;;;5012310;28;20121;-76
2022/03/03 00:24:43;;;;;;;16.65;10.52;;;4.80;98.10;;;;;;5011989;28;20038;-74
2022/03/03 00:27:11;;;;;;;16.58;10.20;;;4.60;98.30;;;;;;5011355;28;20054;-76
2022/03/03 00:29:38;;;;;;;15.10;9.70;;;4.50;98.10;;;;;;5012005;28;20052;-76
2022/03/03 00:32:06;;;;;;;16.95;9.35;;;4.50;98.10;;;;;;5010780;28;20050;-77
2022/03/03 00:34:33;;;;;;;15.07;10.02;;;4.50;97.80;;;;;;5011938;28;20046;-73
2022/03/03 00:37:00;;;;;;;13.45;10.32;;;4.70;98.00;;;;;;5012011;28;20046;-76
2022/03/03 00:39:28;;;;;;;13.77;9.32;;;4.70;97.50;;;;;;5011599;28;20072;-77
2022/03/03 00:41:55;;;;;;;15.43;8.85;;;4.70;97.40;;;;;;5011771;28;20060;-77
2022/03/03 00:44:22;;;;;;;11.07;8.75;;;4.70;96.90;;;;;;5011360;28;20046;-74
2022/03/03 00:46:50;;;;;;;16.33;9.75;;;4.70;96.10;;;;;;5012152;28;20065;-75
2022/03/03 00:49:17;;;;;;;12.90;9.80;;;4.70;97.00;;;;;;5011951;28;20038;-72
2022/03/03 00:51:44;;;;;;;16.67;9.40;;;4.90;96.70;;;;;;5010363;28;20041;-77
2022/03/03 00:54:11;;;;;;;13.57;10.45;;;4.60;96.90;;;;;;5011704;28;20042;-74
2022/03/03 00:56:39;;;;;;;14.15;9.20;;;4.70;96.80;;;;;;5011949;28;20121;-75
2022/03/03 00:59:07;;;;;;;15.15;10.07;;;4.70;96.20;;;;;;5010940;28;20161;-75
2022/03/03 01:01:35;;;;;;;14.85;9.00;;;4.80;96.60;;;;;;5010440;28;20402;-74
2022/03/03 01:04:03;;;;;;;12.95;9.40;;;4.80;96.00;;;;;;5011667;28;20048;-73
2022/03/03 01:06:30;;;;;;;13.55;8.80;;;4.70;96.30;;;;;;5010670;28;20049;-75
2022/03/03 01:08:57;;;;;;;12.98;9.43;;;4.70;96.60;;;;;;5011330;28;20048;-74
2022/03/03 01:11:24;;;;;;;14.10;9.52;;;4.80;95.80;;;;;;5011614;28;20052;-73
2022/03/03 01:13:51;;;;;;;12.50;9.55;;;4.80;96.00;;;;;;5011264;28;20065;-75
2022/03/03 01:16:19;;;;;;;13.68;10.05;;;4.70;96.10;;;;;;5011625;28;20042;-75
2022/03/03 01:18:46;;;;;;;12.98;9.68;;;4.80;96.70;;;;;;5010258;28;20120;-74
2022/03/03 01:21:13;;;;;;;13.57;9.18;;;5.00;95.90;;;;;;5011338;28;20040;-74
2022/03/03 01:23:40;;;;;;;14.10;9.50;;;4.90;95.80;;;;;;5011606;28;20064;-74
2022/03/03 01:26:08;;;;;;;12.57;9.00;;;5.00;95.80;;;;;;5011601;28;20042;-72
2022/03/03 01:28:35;;;;;;;10.70;8.65;;;5.00;94.70;;;;;;5010989;28;20038;-76
2022/03/03 01:31:02;;;;;;;11.13;8.00;;;4.90;95.20;;;;;;4993973;28;20049;-73
2022/03/03 01:33:30;;;;;;;12.55;8.63;;;4.80;95.20;;;;;;5011208;28;20037;-73
2022/03/03 01:35:57;;;;;;;13.05;8.48;;;4.90;94.80;;;;;;5010150;28;20599;-74
2022/03/03 01:38:24;;;;;;;15.60;9.20;;;4.90;94.70;;;;;;5011355;28;20136;-76
2022/03/03 01:40:52;;;;;;;12.75;8.77;;;4.90;95.20;;;;;;5011170;28;20038;-75
2022/03/03 01:43:19;;;;;;;11.43;9.07;;;4.80;93.70;;;;;;5011221;28;20048;-75
2022/03/03 01:45:46;;;;;;;12.10;8.90;;;4.80;94.00;;;;;;5011302;28;20042;-76
2022/03/03 01:48:14;;;;;;;12.93;8.20;;;4.80;94.50;;;;;;5011348;28;20121;-73
2022/03/03 01:50:41;;;;;;;12.52;9.13;;;4.90;94.20;;;;;;5011050;28;20042;-73
2022/03/03 01:53:08;;;;;;;11.40;9.20;;;4.90;94.10;;;;;;5011261;28;20427;-75
2022/03/03 01:55:36;;;;;;;13.88;9.88;;;4.90;94.30;;;;;;5012312;28;20041;-75
2022/03/03 01:58:05;;;;;;;15.52;9.18;;;4.90;95.00;;;;;;5015064;28;20445;-72
2022/03/03 02:00:32;;;;;;;13.20;10.43;;;4.80;95.30;;;;;;5014966;28;20042;-74
2022/03/03 02:03:00;;;;;;;14.90;10.25;;;4.60;97.20;;;;;;4997441;28;20092;-74
2022/03/03 02:05:30;;;;;;;14.25;10.23;;;4.30;98.90;;;;;;5014563;28;20042;-74
2022/03/03 02:07:58;;;;;;;17.60;10.75;;;4.20;99.60;;;;;;5013828;28;20048;-73
2022/03/03 02:10:25;;;;;;;16.75;10.68;;;4.10;99.90;;;;;;5014654;28;20046;-74
2022/03/03 02:12:52;;;;;;;15.00;9.07;;;4.10;99.90;;;;;;4996915;28;20045;-74
2022/03/03 02:15:21;;;;;;;16.10;9.25;;;4.20;98.20;;;;;;5014555;28;20038;-76
2022/03/03 02:17:49;;;;;;;15.32;10.10;;;4.20;98.60;;;;;;5013366;28;20046;-75
2022/03/03 02:20:22;;;;;;;12.50;9.68;;;4.30;99.60;;;;;;5014494;28;20484;-75
2022/03/03 02:22:51;;;;;;;13.95;9.80;;;4.30;99.20;;;;;;4997045;28;20056;-73
2022/03/03 02:25:19;;;;;;;13.63;10.35;;;4.20;99.30;;;;;;5013340;28;20057;-73
2022/03/03 02:27:46;;;;;;;17.85;10.55;;;4.20;99.80;;;;;;5013385;28;20042;-74
2022/03/03 02:30:16;;;;;;;15.00;10.45;;;4.30;99.90;;;;;;5014264;28;20064;-73
2022/03/03 02:32:44;;;;;;;17.77;11.23;;;4.10;99.90;;;;;;4996654;28;20501;-70
2022/03/03 02:35:12;;;;;;;18.13;10.38;;;4.00;99.90;;;;;;5012884;28;20432;-74
2022/03/03 02:37:42;;;;;;;16.13;10.73;;;4.00;99.90;;;;;;4996641;28;20588;-73
2022/03/03 02:40:12;;;;;;;16.00;10.65;;;3.90;99.90;;;;;;5012930;28;20045;-73
2022/03/03 02:42:40;;;;;;;14.48;9.95;;;3.90;99.90;;;;;;5014309;28;20117;-74
2022/03/03 02:45:07;;;;;;;14.75;10.10;;;3.90;99.90;;;;;;5013831;28;20375;-71
2022/03/03 02:47:45;;;;;;;14.82;10.23;;;3.90;99.90;;;;;;5013115;28;20062;-74
2022/03/03 02:50:14;;;;;;;17.45;9.65;;;4.00;99.90;;;;;;5012708;28;20042;-75
2022/03/03 02:52:41;;;;;;;13.80;9.82;;;3.90;99.90;;;;;;5013988;28;20460;-73
2022/03/03 02:55:09;;;;;;;14.75;9.15;;;3.80;99.90;;;;;;5013536;28;20042;-74
2022/03/03 02:57:54;;;;;;;15.45;9.45;;;3.80;99.90;;;;;;5013986;28;20038;-74
2022/03/03 03:00:24;;;;;;;13.15;9.80;;;3.80;99.90;;;;;;5013766;28;20069;-74
2022/03/03 03:02:52;;;;;;;12.33;8.93;;;3.80;99.90;;;;;;5013760;28;20108;-74
2022/03/03 03:05:20;;;;;;;17.00;9.82;;;4.00;99.90;;;;;;5013258;28;20041;-74
2022/03/03 03:07:47;;;;;;;13.98;9.77;;;4.10;99.90;;;;;;5013683;28;20050;-74
2022/03/03 03:10:14;;;;;;;13.57;8.88;;;4.00;99.90;;;;;;5012311;28;20081;-75
2022/03/03 03:12:42;;;;;;;15.43;9.25;;;3.80;99.90;;;;;;5012736;28;20049;-75
2022/03/03 03:15:09;;;;;;;12.93;10.05;;;3.90;99.90;;;;;;5013226;28;20409;-73
2022/03/03 03:17:36;;;;;;;14.88;9.65;;;3.90;99.90;;;;;;5013413;28;20042;-75
2022/03/03 03:20:06;;;;;;;12.10;8.77;;;3.90;99.90;;;;;;5012108;28;20046;-73
2022/03/03 03:22:36;;;;;;;13.48;9.73;;;3.80;99.90;;;;;;5013756;28;20054;-74
2022/03/03 03:25:07;;;;;;;15.80;9.50;;;3.90;99.90;;;;;;5013323;28;20088;-74
2022/03/03 03:27:36;;;;;;;15.07;10.40;;;3.90;99.90;;;;;;4995862;28;20060;-75
2022/03/03 03:30:08;;;;;;;14.68;9.55;;;3.50;99.90;;;;;;5013154;28;20053;-74
2022/03/03 03:32:36;;;;;;;11.90;9.15;;;3.40;99.90;;;;;;5013304;28;20397;-71
2022/03/03 03:35:05;;;;;;;17.65;10.15;;;3.40;99.90;;;;;;4995619;28;20050;-72
2022/03/03 03:37:32;;;;;;;14.52;9.32;;;3.30;99.90;;;;;;5011712;28;20045;-73
2022/03/03 03:40:00;;;;;;;14.98;8.65;;;3.50;99.90;;;;;;5011672;28;20130;-72
2022/03/03 03:42:27;;;;;;;15.73;9.25;;;3.60;99.90;;;;;;4995510;28;20627;-74
2022/03/03 03:44:54;;;;;;;12.98;9.55;;;3.50;99.90;;;;;;5012911;28;20093;-74
2022/03/03 03:47:22;;;;;;;16.90;9.70;;;3.50;99.90;;;;;;5011656;28;20531;-75
2022/03/03 03:49:49;;;;;;;14.27;9.60;;;3.60;99.90;;;;;;5012028;28;20045;-73
2022/03/03 03:52:17;;;;;;;17.27;10.18;;;3.90;99.90;;;;;;5012829;28;20092;-73
2022/03/03 03:54:44;;;;;;;13.93;10.00;;;3.70;99.90;;;;;;5012794;28;20045;-71
2022/03/03 03:57:12;;;;;;;15.00;10.65;;;3.50;99.90;;;;;;5011615;28;20505;-72
2022/03/03 03:59:39;;;;;;;15.23;11.15;;;3.40;99.90;;;;;;4995095;28;20420;-72
2022/03/03 04:02:06;;;;;;;14.00;10.55;;;3.30;99.90;;;;;;5011569;28;20493;-73
2022/03/03 04:04:34;;;;;;;13.63;10.55;;;3.40;99.90;;;;;;5012338;28;20061;-75
2022/03/03 04:07:01;;;;;;;14.23;9.75;;;3.50;99.90;;;;;;4995025;28;20145;-73
2022/03/03 04:09:28;;;;;;;18.98;11.10;;;3.00;99.90;;;;;;5011236;28;20038;-74
2022/03/03 04:11:55;;;;;;;16.88;11.57;;;3.00;99.90;;;;;;5012137;28;20048;-74
2022/03/03 04:14:23;;;;;;;20.33;9.95;;;2.90;99.90;;;;;;5012506;28;20041;-73
2022/03/03 04:16:50;;;;;;;14.60;9.88;;;2.90;99.90;;;;;;5012094;28;20060;-75
2022/03/03 04:19:17;;;;;;;16.00;11.77;;;2.70;99.90;;;;;;5011587;28;20042;-74
2022/03/03 04:21:44;;;;;;;13.13;9.95;;;2.60;99.90;;;;;;5011107;28;20034;-74
2022/03/03 04:24:12;;;;;;;14.32;10.13;;;2.80;99.90;;;;;;5011145;28;20083;-74
2022/03/03 04:26:39;;;;;;;16.92;10.73;;;3.00;99.90;;;;;;5010652;28;20042;-72
2022/03/03 04:29:06;;;;;;;14.57;9.73;;;3.00;99.90;;;;;;5010856;28;20493;-72
2022/03/03 04:31:34;;;;;;;11.98;9.50;;;3.10;99.90;;;;;;5012123;28;20042;-73
2022/03/03 04:34:02;;;;;;;17.35;9.27;;;3.20;99.90;;;;;;4994549;28;20447;-74
2022/03/03 04:36:29;;;;;;;13.20;10.25;;;3.20;99.90;;;;;;5011875;28;20421;-74
2022/03/03 04:38:56;;;;;;;16.65;10.40;;;3.40;99.90;;;;;;5010932;28;20061;-74
2022/03/03 04:41:23;;;;;;;16.58;10.25;;;3.40;99.90;;;;;;4994450;28;20041;-74
2022/03/03 04:43:51;;;;;;;14.90;9.57;;;3.00;99.90;;;;;;5010984;28;20454;-74
2022/03/03 04:46:19;;;;;;;12.90;9.73;;;3.10;99.90;;;;;;4994357;28;20038;-74
2022/03/03 04:48:46;;;;;;;15.15;10.63;;;3.20;99.90;;;;;;5011812;28;20453;-74
2022/03/03 04:51:14;;;;;;;14.65;9.95;;;3.20;99.90;;;;;;5010574;28;20061;-74
2022/03/03 04:53:41;;;;;;;13.38;10.02;;;3.30;99.90;;;;;;5012307;28;20389;-74
2022/03/03 04:56:09;;;;;;;18.08;11.23;;;2.90;99.90;;;;;;5010591;28;20639;-74
2022/03/03 04:58:36;;;;;;;16.13;10.23;;;3.10;99.90;;;;;;5010533;28;20187;-75
2022/03/03 05:01:03;;;;;;;14.40;9.80;;;3.00;99.90;;;;;;5011566;28;20100;-75
2022/03/03 05:03:31;;;;;;;13.48;10.38;;;2.70;99.90;;;;;;4994618;28;20736;-74
2022/03/03 05:05:58;;;;;;;17.40;10.48;;;2.80;99.90;;;;;;5010491;28;20497;-75
2022/03/03 05:08:26;;;;;;;16.00;10.57;;;2.90;99.90;;;;;;5010576;28;20504;-74
2022/03/03 05:10:53;;;;;;;15.98;9.85;;;2.80;99.90;;;;;;5011580;28;20048;-74
2022/03/03 05:13:20;;;;;;;19.30;10.35;;;2.80;99.90;;;;;;5010210;28;20062;-75
2022/03/03 05:15:48;;;;;;;16.27;10.07;;;2.80;99.90;;;;;;5010460;28;20059;-75
2022/03/03 05:18:15;;;;;;;15.48;10.25;;;2.60;99.90;;;;;;5010175;28;20053;-74
2022/03/03 05:20:42;;;;;;;16.08;10.23;;;2.40;99.90;;;;;;5011388;28;20042;-73
2022/03/03 05:23:10;;;;;;;14.95;10.20;;;2.20;99.90;;;;;;4994500;28;20061;-75
2022/03/03 05:25:37;;;;;;;14.77;11.13;;;2.20;99.90;;;;;;4994089;28;20042;-75
2022/03/03 05:28:04;;;;;;;14.10;10.20;;;2.20;99.90;;;;;;5011439;28;20397;-74
2022/03/03 05:30:32;;;;;;;10.50;9.02;;;2.30;99.90;;;;;;4997165;28;20046;-76
2022/03/03 05:32:59;;;;;;;13.15;10.18;;;2.10;99.90;;;;;;5015282;28;20417;-73
2022/03/03 05:35:27;;;;;;;15.25;11.20;;;2.10;99.90;;;;;;4997861;28;20038;-74
2022/03/03 05:37:54;;;;;;;15.82;11.07;;;2.10;99.90;;;;;;5015445;28;20046;-74
2022/03/03 05:40:21;;;;;;;17.35;10.57;;;2.00;99.90;;;;;;5013743;28;20124;-74
2022/03/03 05:42:49;;;;;;;14.50;10.40;;;2.00;99.90;;;;;;5015108;28;20050;-74
2022/03/03 05:45:17;;;;;;;16.77;10.85;;;1.90;99.90;;;;;;5013467;28;20041;-75
2022/03/03 05:47:45;;;;;;;16.52;10.50;;;2.00;99.90;;;;;;5014179;28;20048;-74
2022/03/03 05:50:12;;;;;;;15.73;11.13;;;1.90;99.90;;;;;;5014959;28;20050;-72
2022/03/03 05:52:40;;;;;;;12.93;10.55;;;1.90;99.90;;;;;;5013509;28;20042;-74
2022/03/03 05:55:07;;;;;;;17.30;11.38;;;1.90;99.90;;;;;;5014110;28;20054;-75
2022/03/03 05:57:38;;;;;;;18.20;10.48;;;1.90;99.90;;;;;;5014957;28;20120;-75
2022/03/03 06:00:12;;;;;;;14.88;10.63;;;1.90;99.90;;;;;;5014497;28;20046;-76
2022/03/03 06:02:51;;;;;;;16.83;9.57;;;1.90;99.90;;;;;;5013754;28;20038;-74
2022/03/03 06:05:24;;;;;;;16.02;10.68;;;1.90;99.90;;;;;;5013681;28;20050;-74
2022/03/03 06:07:54;;;;;;;12.25;8.65;;;2.00;99.90;;;;;;5014977;28;20045;-75
2022/03/03 06:10:24;;;;;;;21.70;10.32;;;2.00;99.90;;;;;;5014557;28;20458;-76
2022/03/03 06:13:04;;;;;;;14.37;11.37;;;2.10;99.90;;;;;;5013109;28;20057;-75
2022/03/03 06:15:33;;;;;;;14.95;11.27;;;2.20;99.90;;;;;;5014622;28;20291;-75
2022/03/03 06:18:02;;;;;;;18.63;11.55;;;2.10;99.90;;;;;;5013521;28;20033;-77
2022/03/03 06:20:31;;;;;;;17.42;11.43;;;2.20;99.90;;;;;;5013056;28;20054;-75
2022/03/03 06:22:58;;;;;;;17.65;11.77;;;2.30;99.90;;;;;;5014022;28;20038;-74
2022/03/03 06:25:26;;;;;;;17.25;11.95;;;2.40;99.90;;;;;;5013974;28;20050;-75
2022/03/03 06:27:54;;;;;;;17.10;11.73;;;2.70;99.90;;;;;;5012769;28;20053;-77
2022/03/03 06:30:21;;;;;;;20.48;12.10;;;2.70;99.90;;;;;;5013766;28;20080;-75
2022/03/03 06:32:51;;;;;;;24.55;12.43;;;2.70;99.90;;;;;;5013645;28;20046;-75
2022/03/03 06:35:18;;;;;;;15.68;11.63;;;2.60;99.90;;;;;;5013780;28;20045;-73
2022/03/03 06:37:46;;;;;;;22.15;12.25;;;2.50;99.90;;;;;;5012761;28;20058;-72
2022/03/03 06:40:13;;;;;;;13.23;10.25;;;2.50;99.90;;;;;;5012192;28;20486;-74
2022/03/03 06:42:40;;;;;;;19.80;13.55;;;2.50;99.90;;;;;;4995698;28;20061;-74
2022/03/03 06:45:08;;;;;;;30.55;18.27;;;2.60;99.90;;;;;;5013983;28;20509;-75
2022/03/03 06:47:37;;;;;;;25.42;15.07;;;2.70;99.90;;;;;;5012858;28;20045;-74
2022/03/03 06:50:04;;;;;;;25.23;14.75;;;2.70;99.90;;;;;;5012619;28;20042;-74
2022/03/03 06:52:34;;;;;;;19.58;11.85;;;2.80;99.90;;;;;;5011231;28;20072;-73
2022/03/03 06:55:02;;;;;;;16.65;10.70;;;2.90;99.90;;;;;;5011255;28;20046;-74
2022/03/03 06:57:30;;;;;;;16.42;11.15;;;2.90;99.90;;;;;;5012452;28;20041;-73
2022/03/03 07:00:01;;;;;;;16.88;11.18;;;2.80;99.90;;;;;;5011261;28;20045;-76
2022/03/03 07:02:29;;;;;;;16.73;11.27;;;2.90;99.90;;;;;;4995318;28;20049;-74
2022/03/03 07:04:58;;;;;;;18.05;10.82;;;3.00;99.90;;;;;;5009830;28;20045;-75
2022/03/03 07:07:26;;;;;;;16.85;11.30;;;3.00;99.90;;;;;;5012982;28;20038;-76
2022/03/03 07:09:54;;;;;;;19.38;11.18;;;3.00;99.90;;;;;;5010040;28;20041;-73
2022/03/03 07:12:24;;;;;;;18.52;12.13;;;3.10;99.90;;;;;;5010661;28;20074;-75
2022/03/03 07:14:51;;;;;;;18.92;12.65;;;3.10;99.90;;;;;;5011714;28;20053;-75
2022/03/03 07:17:51;;;;;;;20.63;13.55;;;3.30;99.90;;;;;;5013016;28;20391;-72
2022/03/03 07:20:27;;;;;;;15.40;10.38;;;3.30;99.90;;;;;;5002896;28;20072;-70
2022/03/03 07:22:59;;;;;;;14.82;9.70;;;3.40;99.90;;;;;;5005115;28;20041;-76
2022/03/03 07:25:43;;;;;;;14.38;10.30;;;3.40;99.90;;;;;;5011362;28;20038;-78
2022/03/03 07:28:13;;;;;;;15.70;10.25;;;3.50;99.90;;;;;;5012004;28;20041;-75
2022/03/03 07:30:42;;;;;;;15.60;10.35;;;3.60;99.90;;;;;;5011742;28;20046;-72
2022/03/03 07:33:24;;;;;;;13.98;10.57;;;3.80;99.90;;;;;;5012047;28;20172;-75
2022/03/03 07:35:57;;;;;;;16.05;10.23;;;3.90;99.50;;;;;;5011406;28;20537;-74
2022/03/03 07:38:38;;;;;;;14.10;9.70;;;3.90;98.20;;;;;;5012968;28;20116;-75
2022/03/03 07:41:07;;;;;;;15.43;10.07;;;4.20;98.20;;;;;;5012733;28;20045;-78
2022/03/03 07:43:34;;;;;;;17.70;10.52;;;4.30;97.20;;;;;;5012887;28;20041;-74
2022/03/03 07:46:02;;;;;;;13.70;10.63;;;4.30;96.80;;;;;;5013079;28;20394;-71
2022/03/03 07:48:32;;;;;;;12.85;9.35;;;4.40;96.50;;;;;;5012529;28;20429;-72
2022/03/03 07:51:01;;;;;;;14.93;9.87;;;4.60;95.10;;;;;;5012877;28;20050;-73
2022/03/03 07:53:28;;;;;;;14.00;9.32;;;4.60;94.90;;;;;;5010346;28;20050;-73
2022/03/03 07:56:02;;;;;;;16.75;10.45;;;4.60;95.20;;;;;;5012484;28;20400;-71
2022/03/03 07:58:33;;;;;;;14.45;9.55;;;4.70;95.10;;;;;;5012453;28;20096;-72
2022/03/03 08:01:03;;;;;;;14.15;10.38;;;4.60;94.30;;;;;;5011376;28;20408;-72
2022/03/03 08:03:31;;;;;;;14.30;10.75;;;4.60;94.40;;;;;;5012411;28;20046;-72
2022/03/03 08:05:58;;;;;;;13.38;9.82;;;4.90;94.30;;;;;;5011428;28;20383;-72
2022/03/03 08:08:28;;;;;;;16.42;10.05;;;5.00;93.80;;;;;;4993533;28;20741;-72
2022/03/03 08:11:03;;;;;;;15.65;10.57;;;5.10;92.20;;;;;;5011120;28;20060;-71
2022/03/03 08:13:31;;;;;;;17.67;11.45;;;5.40;92.20;;;;;;5009532;28;20635;-72
2022/03/03 08:15:59;;;;;;;16.20;10.38;;;5.50;91.30;;;;;;5012287;28;20452;-71
2022/03/03 08:18:37;;;;;;;18.55;11.45;;;5.60;91.20;;;;;;5012012;28;20052;-73
2022/03/03 08:21:06;;;;;;;16.38;10.30;;;5.70;91.20;;;;;;5011755;28;20398;-73
2022/03/03 08:23:34;;;;;;;14.50;10.65;;;5.80;89.50;;;;;;5012431;28;20033;-74
2022/03/03 08:26:02;;;;;;;15.02;10.75;;;6.10;90.10;;;;;;5012319;28;20046;-74
2022/03/03 08:28:31;;;;;;;16.42;10.68;;;6.30;89.60;;;;;;5012191;28;20053;-73
2022/03/03 08:31:07;;;;;;;20.58;10.57;;;6.40;86.10;;;;;;5012071;28;20066;-75
2022/03/03 08:33:50;;;;;;;17.88;10.52;;;6.50;86.50;;;;;;5010948;28;20494;-73
2022/03/03 08:36:33;;;;;;;14.05;10.63;;;6.50;84.80;;;;;;5012128;28;20405;-71
2022/03/03 08:39:06;;;;;;;15.20;10.40;;;6.60;86.00;;;;;;5011399;28;20108;-70
2022/03/03 08:41:38;;;;;;;14.73;10.05;;;6.70;85.70;;;;;;5011445;28;20053;-72
2022/03/03 08:44:07;;;;;;;13.35;10.32;;;6.40;83.80;;;;;;5011973;28;20041;-75
2022/03/03 08:46:38;;;;;;;17.67;11.15;;;6.20;85.10;;;;;;5010821;28;20053;-73
2022/03/03 08:49:06;;;;;;;;;;;6.60;84.70;;;;;;5012145;28;20489;-73
2022/03/03 08:51:35;;;;;;;14.30;10.05;;;6.70;83.30;;;;;;5011765;28;19922;-72
2022/03/03 08:54:04;;;;;;;13.75;9.90;;;6.80;82.80;;;;;;5011584;28;20687;-74
2022/03/03 08:56:32;;;;;;;12.65;9.02;;;7.40;80.50;;;;;;5011732;28;20045;-73
2022/03/03 08:59:00;;;;;;;15.77;10.02;;;6.60;78.70;;;;;;5011376;28;20037;-75
2022/03/03 09:01:28;;;;;;;16.50;10.95;;;6.80;80.00;;;;;;5011587;28;20049;-73
2022/03/03 09:03:58;;;;;;;19.90;13.07;;;7.10;80.10;;;;;;5010940;28;20409;-73
2022/03/03 09:06:26;;;;;;;17.13;8.88;;;7.00;79.70;;;;;;5011432;28;20041;-73
2022/03/03 09:08:53;;;;;;;13.32;9.73;;;6.20;79.30;;;;;;5011901;28;20404;-73
2022/03/03 09:11:21;;;;;;;11.80;9.38;;;6.30;80.30;;;;;;5011761;28;20116;-75
2022/03/03 09:13:48;;;;;;;15.05;9.50;;;6.40;80.40;;;;;;5011500;28;20060;-73
2022/03/03 09:16:17;;;;;;;14.02;9.70;;;6.30;81.60;;;;;;5010697;28;20421;-74
2022/03/03 09:18:46;;;;;;;12.32;9.10;;;6.40;81.40;;;;;;5010361;28;20513;-72
2022/03/03 09:21:13;;;;;;;12.55;9.35;;;6.30;80.90;;;;;;5011509;28;20502;-73
2022/03/03 09:23:42;;;;;;;13.30;9.20;;;6.20;80.20;;;;;;5010258;28;20037;-73
2022/03/03 09:26:16;;;;;;;16.67;9.43;;;6.50;80.10;;;;;;5009635;28;20054;-74
2022/03/03 09:28:44;;;;;;;14.38;10.05;;;6.60;78.70;;;;;;5008691;28;20408;-72
2022/03/03 09:31:11;;;;;;;12.10;8.88;;;6.90;78.40;;;;;;5010114;28;20060;-71
2022/03/03 09:33:39;;;;;;;12.82;9.32;;;7.10;77.00;;;;;;5009799;28;20505;-73
2022/03/03 09:36:07;;;;;;;14.13;9.48;;;7.20;75.90;;;;;;4993840;28;20446;-75
2022/03/03 09:38:34;;;;;;;12.82;8.80;;;7.20;75.40;;;;;;5009701;28;20045;-73
2022/03/03 09:41:02;;;;;;;15.38;9.13;;;7.30;73.90;;;;;;5009785;28;20449;-74
2022/03/03 09:43:29;;;;;;;13.32;8.65;;;7.30;73.60;;;;;;5010987;28;20046;-71
2022/03/03 09:45:59;;;;;;;12.30;8.50;;;7.40;73.70;;;;;;5009980;28;20046;-72
2022/03/03 09:48:27;;;;;;;11.20;8.25;;;7.30;73.50;;;;;;5010341;28;20054;-74
2022/03/03 09:50:55;;;;;;;11.75;8.63;;;7.30;73.00;;;;;;5009734;28;20050;-74
2022/03/03 09:53:23;;;;;;;13.45;9.48;;;7.40;72.90;;;;;;4990371;28;20042;-73
2022/03/03 09:55:52;;;;;;;15.27;9.65;;;8.00;72.70;;;;;;4991370;28;20070;-75
2022/03/03 09:58:20;;;;;;;15.95;9.00;;;8.10;71.50;;;;;;4973706;28;20379;-73
2022/03/03 10:00:48;;;;;;;13.48;9.30;;;7.90;69.80;;;;;;4974160;28;20058;-73
2022/03/03 10:03:18;;;;;;;12.55;9.57;;;7.50;71.00;;;;;;4990362;28;20050;-72
2022/03/03 10:05:50;;;;;;;;;;;7.80;71.50;;;;;;4991569;28;20070;-74
2022/03/03 10:08:20;;;;;;;11.43;8.02;;;7.80;70.00;;;;;;4983573;28;19921;-76
2022/03/03 10:10:57;;;;;;;14.25;7.72;;;8.10;70.40;;;;;;4990121;28;20050;-74
2022/03/03 10:13:25;;;;;;;12.32;7.85;;;8.30;69.40;;;;;;4990204;28;20468;-73
2022/03/03 10:15:56;;;;;;;11.90;8.43;;;8.20;69.00;;;;;;4989949;28;20116;-74
2022/03/03 10:18:26;;;;;;;14.02;8.10;;;8.50;70.00;;;;;;4993432;28;20089;-74
2022/03/03 10:21:02;;;;;;;10.43;7.47;;;8.50;67.20;;;;;;5009755;28;20054;-73
2022/03/03 10:23:33;;;;;;;10.88;7.75;;;8.40;67.80;;;;;;4991427;28;20076;-72
2022/03/03 10:26:07;;;;;;;13.65;8.07;;;8.70;66.90;;;;;;4997094;28;20045;-74
2022/03/03 10:28:37;;;;;;;11.70;8.07;;;8.70;66.70;;;;;;4996345;28;20042;-72
2022/03/03 10:31:10;;;;;;;10.98;6.80;;;8.70;66.80;;;;;;4996883;28;20061;-71
2022/03/03 10:33:46;;;;;;;10.68;7.57;;;8.80;63.70;;;;;;5012702;28;20584;-71
2022/03/03 10:36:24;;;;;;;13.43;9.52;;;9.40;65.10;;;;;;5012487;28;20052;-72
2022/03/03 10:38:57;;;;;;;11.93;8.13;;;10.10;67.30;;;;;;4996552;28;20482;-74
2022/03/03 10:41:46;;;;;;;13.43;8.30;;;10.70;63.80;;;;;;5013989;28;20536;-72
2022/03/03 10:44:32;;;;;;;11.63;6.80;;;9.70;63.40;;;;;;4996565;28;20550;-73
2022/03/03 10:47:00;;;;;;;10.18;6.80;;;9.30;61.30;;;;;;5012486;28;20123;-72
2022/03/03 10:49:28;;;;;;;9.30;6.13;;;8.90;61.70;;;;;;5012542;28;20493;-72
2022/03/03 10:52:23;;;;;;;9.20;6.28;;;9.20;61.50;;;;;;5012358;28;20174;-71
2022/03/03 10:54:58;;;;;;;10.38;7.40;;;9.40;60.90;;;;;;4996589;28;20045;-71
2022/03/03 10:57:40;;;;;;;9.40;6.70;;;9.40;61.90;;;;;;5012400;28;20072;-72
2022/03/03 11:00:25;;;;;;;8.45;5.80;;;9.10;61.10;;;;;;4996288;28;20445;-72
2022/03/03 11:02:57;;;;;;;10.85;7.03;;;9.30;60.90;;;;;;5011788;28;20457;-73
2022/03/03 11:05:44;;;;;;;8.85;6.40;;;9.90;59.90;;;;;;4998899;28;20413;-71
2022/03/03 11:08:12;;;;;;;7.90;6.00;;;10.40;58.40;;;;;;5011522;28;20046;-72
2022/03/03 11:10:40;;;;;;;9.05;5.75;;;10.10;57.90;;;;;;4996043;28;20042;-73
2022/03/03 11:13:08;;;;;;;9.63;6.07;;;10.60;57.40;;;;;;4995360;28;20145;-73
2022/03/03 11:15:36;;;;;;;8.88;5.93;;;10.80;56.80;;;;;;5012159;28;20046;-73
2022/03/03 11:18:07;;;;;;;8.57;6.47;;;10.20;57.50;;;;;;5011548;28;20054;-72
2022/03/03 11:20:35;;;;;;;8.35;6.30;;;10.20;58.00;;;;;;4995920;28;20509;-73
2022/03/03 11:23:06;;;;;;;10.75;5.97;;;9.90;57.90;;;;;;5012999;28;20053;-77
2022/03/03 11:25:36;;;;;;;7.07;5.45;;;9.70;58.40;;;;;;4995682;28;20145;-73
2022/03/03 11:28:14;;;;;;;8.77;6.05;;;9.80;58.70;;;;;;4996131;28;20042;-76
2022/03/03 11:31:28;;;;;;;12.43;8.15;;;10.10;58.40;;;;;;5010842;28;20512;-75
2022/03/03 11:34:23;;;;;;;13.32;8.02;;;10.60;59.20;;;;;;5011308;28;20056;-72
2022/03/03 11:37:07;;;;;;;10.25;6.50;;;10.70;57.10;;;;;;5012456;28;20509;-72
2022/03/03 11:39:38;;;;;;;8.57;6.15;;;11.80;55.50;;;;;;5009794;28;20053;-74
2022/03/03 11:42:16;;;;;;;8.65;5.75;;;12.50;54.30;;;;;;5010717;28;20073;-74
2022/03/03 11:44:43;;;;;;;9.00;5.68;;;13.00;53.70;;;;;;4990122;28;20042;-72
2022/03/03 11:47:28;;;;;;;7.43;5.45;;;12.90;53.60;;;;;;5002654;28;20383;-74
2022/03/03 11:50:12;;;;;;;9.63;5.20;;;11.80;52.60;;;;;;5009556;28;20397;-74
2022/03/03 11:52:41;;;;;;;9.65;5.38;;;11.10;54.30;;;;;;5011252;28;20465;-75
2022/03/03 11:55:34;;;;;;;8.48;5.07;;;10.30;55.30;;;;;;4995689;28;20140;-74
2022/03/03 11:58:11;;;;;;;9.40;5.82;;;10.80;55.50;;;;;;5011125;28;20046;-75
2022/03/03 12:00:44;;;;;;;8.45;5.35;;;10.90;54.30;;;;;;5011611;28;20408;-75
2022/03/03 12:03:14;;;;;;;8.27;5.88;;;10.80;54.50;;;;;;5012365;28;20052;-73
2022/03/03 12:05:47;;;;;;;8.20;5.40;;;11.10;54.80;;;;;;5012808;28;20038;-73
2022/03/03 12:08:14;;;;;;;9.25;5.70;;;12.00;53.60;;;;;;5012469;28;20046;-76
2022/03/03 12:10:59;;;;;;;7.90;5.40;;;11.50;53.40;;;;;;4994628;28;20057;-72
2022/03/03 12:13:33;;;;;;;9.57;5.57;;;10.70;54.30;;;;;;5009644;28;20058;-76
2022/03/03 12:16:24;;;;;;;7.10;5.40;;;10.70;54.30;;;;;;5009999;28;20504;-74
2022/03/03 12:18:55;;;;;;;6.50;4.75;;;11.10;53.50;;;;;;5008679;28;20069;-76
2022/03/03 12:21:28;;;;;;;7.07;4.53;;;11.60;53.10;;;;;;5008540;28;20037;-75
2022/03/03 12:24:14;;;;;;;7.90;4.88;;;11.80;51.80;;;;;;5009733;28;20052;-71
2022/03/03 12:26:57;;;;;;;8.32;4.53;;;11.70;51.30;;;;;;4991103;28;20069;-72
2022/03/03 12:29:40;;;;;;;7.38;4.30;;;12.80;50.40;;;;;;4991288;28;20136;-73
2022/03/03 12:32:44;;;;;;;7.22;4.18;;;12.60;50.00;;;;;;5002634;28;20046;-76
2022/03/03 12:35:29;;;;;;;7.90;4.55;;;13.40;49.90;;;;;;4989303;28;20069;-76
2022/03/03 12:38:00;;;;;;;8.05;4.30;;;13.90;49.40;;;;;;5012016;28;20044;-76
2022/03/03 12:40:30;;;;;;;7.53;4.60;;;12.90;50.30;;;;;;5010309;28;20042;-74
2022/03/03 12:42:58;;;;;;;8.93;4.25;;;13.20;50.10;;;;;;5006878;28;20405;-73
2022/03/03 12:45:31;;;;;;;6.47;4.35;;;14.60;49.20;;;;;;5009085;28;20042;-72
2022/03/03 12:47:58;;;;;;;8.10;4.53;;;15.60;46.70;;;;;;5007036;28;20046;-73
2022/03/03 12:50:29;;;;;;;7.00;4.57;;;15.30;45.30;;;;;;5010747;28;20037;-75
2022/03/03 12:53:10;;;;;;;7.25;4.78;;;15.00;45.60;;;;;;5009572;28;20042;-75
2022/03/03 12:55:44;;;;;;;7.05;4.93;;;14.30;46.10;;;;;;4990980;28;20049;-72
2022/03/03 12:58:14;;;;;;;8.00;6.35;;;13.90;46.90;;;;;;5008718;28;20119;-77